Time;durP1;ratioP1;P1;durP2;ratioP2;P2;SDS_P1;SDS_P2;PMS_P1;PMS_P2;Temp;Humidity;BMP_temperature;BMP_pressure;BME280_temperature;BME280_humidity;BME280_pressure;Samples;Min_cycle;Max_cycle;Signal;HPM_P1;HPM_P2
2021/09/07 00:00:08;;;;;;;30.58;20.77;;;17.90;99.90;;;;;;5014287;28;20371;-78
2021/09/07 00:02:34;;;;;;;29.10;20.90;;;17.90;99.90;;;;;;5015127;28;20022;-78
2021/09/07 00:04:59;;;;;;;33.33;22.88;;;17.90;99.90;;;;;;5015575;28;20037;-78
2021/09/07 00:07:25;;;;;;;31.20;22.52;;;17.70;99.90;;;;;;5013950;28;20029;-79
2021/09/07 00:09:52;;;;;;;30.48;21.02;;;17.80;99.90;;;;;;5014159;28;20029;-79
2021/09/07 00:12:18;;;;;;;29.27;20.98;;;17.80;99.90;;;;;;5014616;28;20018;-78
2021/09/07 00:14:44;;;;;;;34.25;22.25;;;17.80;99.90;;;;;;5015878;28;20034;-78
2021/09/07 00:17:11;;;;;;;30.85;21.50;;;17.90;99.90;;;;;;5015539;28;20030;-78
2021/09/07 00:19:37;;;;;;;33.80;22.10;;;17.90;99.90;;;;;;5014295;28;20030;-78
2021/09/07 00:22:03;;;;;;;33.00;22.60;;;17.90;99.90;;;;;;5015225;28;20064;-79
2021/09/07 00:24:29;;;;;;;33.03;22.27;;;17.90;99.90;;;;;;5014636;28;20088;-80
2021/09/07 00:26:56;;;;;;;35.97;23.35;;;17.80;99.90;;;;;;5014799;28;20809;-80
2021/09/07 00:29:22;;;;;;;34.95;23.77;;;17.60;99.90;;;;;;5014204;28;20026;-79
2021/09/07 00:31:47;;;;;;;35.35;23.67;;;17.70;99.90;;;;;;5014384;28;20273;-79
2021/09/07 00:34:13;;;;;;;32.95;23.23;;;17.70;99.90;;;;;;5014024;28;20467;-79
2021/09/07 00:36:38;;;;;;;34.65;23.95;;;17.70;99.90;;;;;;5014296;28;20128;-79
2021/09/07 00:39:04;;;;;;;32.33;22.95;;;17.80;99.90;;;;;;5015885;28;20121;-78
2021/09/07 00:41:30;;;;;;;35.65;23.50;;;17.80;99.90;;;;;;5014364;28;20038;-78
2021/09/07 00:43:56;;;;;;;32.47;23.77;;;17.80;99.90;;;;;;5014395;28;20033;-78
2021/09/07 00:46:21;;;;;;;37.15;23.95;;;17.90;99.90;;;;;;5017104;28;20037;-78
2021/09/07 00:48:47;;;;;;;34.95;25.17;;;17.80;99.90;;;;;;5017910;28;20034;-78
2021/09/07 00:51:12;;;;;;;36.92;24.40;;;17.80;99.90;;;;;;5017882;28;20072;-79
2021/09/07 00:53:40;;;;;;;37.67;24.77;;;17.70;99.90;;;;;;5017962;28;20455;-79
2021/09/07 00:56:07;;;;;;;33.42;23.98;;;17.70;99.90;;;;;;5017964;28;20044;-79
2021/09/07 00:58:36;;;;;;;35.88;25.20;;;17.60;99.90;;;;;;5019092;28;20029;-78
2021/09/07 01:01:02;;;;;;;36.90;25.15;;;17.70;99.90;;;;;;5018190;28;20033;-79
2021/09/07 01:03:28;;;;;;;37.38;23.48;;;17.60;99.90;;;;;;5019433;28;20382;-79
2021/09/07 01:05:53;;;;;;;37.00;24.60;;;17.60;99.90;;;;;;5019238;28;20262;-79
2021/09/07 01:08:19;;;;;;;33.53;23.90;;;17.60;99.90;;;;;;5018954;28;20491;-78
2021/09/07 01:10:45;;;;;;;36.92;23.30;;;17.70;99.90;;;;;;5017681;28;20060;-78
2021/09/07 01:13:11;;;;;;;32.78;23.70;;;17.60;99.90;;;;;;5019590;28;20022;-78
2021/09/07 01:15:36;;;;;;;32.58;23.25;;;17.70;99.90;;;;;;5017780;28;20033;-78
2021/09/07 01:18:03;;;;;;;32.97;23.90;;;17.70;99.90;;;;;;5017788;28;20025;-78
2021/09/07 01:20:29;;;;;;;33.03;24.08;;;17.60;99.90;;;;;;5018137;28;20108;-78
2021/09/07 01:22:55;;;;;;;35.67;24.92;;;17.50;99.90;;;;;;5017870;28;20056;-78
2021/09/07 01:25:20;;;;;;;34.72;24.38;;;17.50;99.90;;;;;;5018520;28;20052;-78
2021/09/07 01:27:47;;;;;;;37.42;24.58;;;17.30;99.90;;;;;;5017798;28;20108;-78
2021/09/07 01:30:14;;;;;;;36.25;23.90;;;17.20;99.90;;;;;;5018577;28;20387;-78
2021/09/07 01:32:40;;;;;;;34.90;23.30;;;17.20;99.90;;;;;;5017087;28;20018;-78
2021/09/07 01:35:06;;;;;;;38.47;24.20;;;17.20;99.90;;;;;;5018933;28;20041;-79
2021/09/07 01:37:37;;;;;;;35.30;24.88;;;17.20;99.90;;;;;;5017542;28;20029;-78
2021/09/07 01:40:03;;;;;;;38.45;25.52;;;17.20;99.90;;;;;;5017613;28;20033;-78
2021/09/07 01:42:29;;;;;;;42.33;26.52;;;17.20;99.90;;;;;;5016785;28;20471;-78
2021/09/07 01:44:54;;;;;;;37.17;25.30;;;17.20;99.90;;;;;;5016733;28;20033;-78
2021/09/07 01:47:20;;;;;;;36.05;25.88;;;17.10;99.90;;;;;;5017174;28;20537;-78
2021/09/07 01:49:46;;;;;;;38.67;26.38;;;17.00;99.90;;;;;;5016467;28;20065;-78
2021/09/07 01:52:13;;;;;;;32.97;24.52;;;17.10;99.90;;;;;;5016286;28;20045;-78
2021/09/07 01:54:44;;;;;;;34.47;25.83;;;17.10;99.90;;;;;;5017881;28;20387;-78
2021/09/07 01:57:12;;;;;;;36.88;25.00;;;17.10;99.90;;;;;;5015471;28;20033;-78
2021/09/07 01:59:38;;;;;;;34.45;23.58;;;17.00;99.90;;;;;;5016220;28;20391;-78
2021/09/07 02:02:03;;;;;;;37.85;25.27;;;16.90;99.90;;;;;;5016257;28;20022;-78
2021/09/07 02:04:29;;;;;;;45.45;27.40;;;16.90;99.90;;;;;;5016846;28;20097;-78
2021/09/07 02:06:55;;;;;;;44.08;27.75;;;17.00;99.90;;;;;;5018188;28;20046;-78
2021/09/07 02:09:21;;;;;;;38.28;26.50;;;17.00;99.90;;;;;;5016001;28;20030;-78
2021/09/07 02:11:46;;;;;;;39.15;26.30;;;16.90;99.90;;;;;;5016107;28;20030;-78
2021/09/07 02:14:12;;;;;;;43.10;26.85;;;16.90;99.90;;;;;;5016847;28;20026;-79
2021/09/07 02:16:38;;;;;;;37.40;25.13;;;16.80;99.90;;;;;;5018069;28;20042;-78
2021/09/07 02:19:04;;;;;;;36.28;24.83;;;16.70;99.90;;;;;;5016505;28;20113;-78
2021/09/07 02:21:29;;;;;;;37.95;26.50;;;16.80;99.90;;;;;;5018052;28;20505;-78
2021/09/07 02:23:55;;;;;;;34.67;26.13;;;16.70;99.90;;;;;;5016324;28;20057;-78
2021/09/07 02:26:21;;;;;;;36.17;24.80;;;16.50;99.90;;;;;;5016527;28;20026;-78
2021/09/07 02:28:46;;;;;;;34.47;24.88;;;16.50;99.90;;;;;;5017093;28;20029;-78
2021/09/07 02:31:12;;;;;;;36.33;24.98;;;16.50;99.90;;;;;;5016250;28;20032;-78
2021/09/07 02:33:37;;;;;;;40.58;27.77;;;16.40;99.90;;;;;;5018109;28;20022;-79
2021/09/07 02:36:03;;;;;;;43.00;27.60;;;16.40;99.90;;;;;;5015733;28;20041;-78
2021/09/07 02:38:29;;;;;;;41.38;28.25;;;16.50;99.90;;;;;;5017314;28;20022;-78
2021/09/07 02:40:57;;;;;;;42.67;28.95;;;16.50;99.90;;;;;;5016119;28;20079;-77
2021/09/07 02:43:25;;;;;;;44.67;29.60;;;16.50;99.90;;;;;;5017448;28;20088;-78
2021/09/07 02:45:51;;;;;;;45.03;30.10;;;16.50;99.90;;;;;;5017406;28;20036;-78
2021/09/07 02:48:17;;;;;;;45.97;29.45;;;16.60;99.90;;;;;;5015756;28;20028;-78
2021/09/07 02:50:43;;;;;;;41.97;28.42;;;16.70;99.90;;;;;;5015954;28;20116;-78
2021/09/07 02:53:08;;;;;;;41.03;27.63;;;16.70;99.90;;;;;;5017076;28;20104;-78
2021/09/07 02:55:34;;;;;;;38.35;26.70;;;16.60;99.90;;;;;;5014910;28;20109;-78
2021/09/07 02:58:00;;;;;;;38.28;27.88;;;16.60;99.90;;;;;;5017017;28;20030;-78
2021/09/07 03:00:25;;;;;;;38.55;27.80;;;16.70;99.90;;;;;;5015044;28;20068;-78
2021/09/07 03:02:52;;;;;;;40.70;28.88;;;16.80;99.90;;;;;;5015699;28;20076;-78
2021/09/07 03:05:17;;;;;;;44.85;27.77;;;16.70;99.90;;;;;;5016397;28;20026;-78
2021/09/07 03:07:43;;;;;;;37.33;26.88;;;16.70;99.90;;;;;;5016069;28;20022;-78
2021/09/07 03:10:09;;;;;;;38.75;27.33;;;16.70;99.90;;;;;;5015227;28;20087;-78
2021/09/07 03:12:35;;;;;;;41.15;28.00;;;16.70;99.90;;;;;;5015682;28;20048;-78
2021/09/07 03:15:01;;;;;;;38.22;26.85;;;16.70;99.90;;;;;;5015393;28;20088;-78
2021/09/07 03:17:26;;;;;;;43.15;28.77;;;16.70;99.90;;;;;;5016746;28;20050;-78
2021/09/07 03:19:52;;;;;;;41.03;28.50;;;16.60;99.90;;;;;;5015490;28;20030;-78
2021/09/07 03:22:17;;;;;;;42.38;27.77;;;16.60;99.90;;;;;;5016203;28;20109;-78
2021/09/07 03:24:43;;;;;;;44.15;28.75;;;16.60;99.90;;;;;;5015581;28;20033;-78
2021/09/07 03:27:09;;;;;;;41.90;27.23;;;16.50;99.90;;;;;;5015049;28;20386;-79
2021/09/07 03:29:34;;;;;;;42.20;28.02;;;16.50;99.90;;;;;;5016922;28;20021;-78
2021/09/07 03:32:00;;;;;;;41.13;27.25;;;16.40;99.90;;;;;;5015209;28;20026;-78
2021/09/07 03:34:26;;;;;;;42.78;28.42;;;16.40;99.90;;;;;;5015106;28;20030;-79
2021/09/07 03:36:51;;;;;;;44.50;28.35;;;16.40;99.90;;;;;;5015407;28;20022;-78
2021/09/07 03:39:17;;;;;;;39.28;28.30;;;16.40;99.90;;;;;;5014625;28;20499;-79
2021/09/07 03:41:42;;;;;;;41.22;28.67;;;16.30;99.90;;;;;;5014601;28;20128;-78
2021/09/07 03:44:08;;;;;;;42.67;28.25;;;16.30;99.90;;;;;;5016468;28;20026;-78
2021/09/07 03:46:34;;;;;;;42.00;28.67;;;16.40;99.90;;;;;;5015985;28;20120;-78
2021/09/07 03:49:00;;;;;;;40.70;27.17;;;16.40;99.90;;;;;;5014554;28;20032;-78
2021/09/07 03:51:26;;;;;;;40.53;28.13;;;16.30;99.90;;;;;;5013817;28;20076;-78
2021/09/07 03:53:52;;;;;;;46.63;29.17;;;16.10;99.90;;;;;;5015995;28;20026;-78
2021/09/07 03:56:18;;;;;;;38.75;27.17;;;16.20;99.90;;;;;;5015648;28;20030;-77
2021/09/07 03:58:43;;;;;;;47.03;28.58;;;16.00;99.90;;;;;;5014852;28;20101;-79
2021/09/07 04:01:09;;;;;;;43.90;29.60;;;15.90;99.90;;;;;;5014682;28;20040;-79
2021/09/07 04:03:35;;;;;;;46.35;30.20;;;15.90;99.90;;;;;;5013512;28;20116;-79
2021/09/07 04:06:01;;;;;;;42.97;29.08;;;15.90;99.90;;;;;;5013076;28;20061;-78
2021/09/07 04:08:27;;;;;;;42.47;29.60;;;15.90;99.90;;;;;;5014000;28;20135;-78
2021/09/07 04:10:52;;;;;;;48.92;29.83;;;16.00;99.90;;;;;;5013255;28;20034;-78
2021/09/07 04:13:18;;;;;;;43.83;29.90;;;16.10;99.90;;;;;;5013109;28;20033;-79
2021/09/07 04:15:44;;;;;;;42.45;29.45;;;16.00;99.90;;;;;;5015049;28;20018;-79
2021/09/07 04:18:09;;;;;;;44.60;29.83;;;16.20;99.90;;;;;;5014605;28;20386;-79
2021/09/07 04:20:36;;;;;;;49.10;29.00;;;16.30;99.90;;;;;;5014169;28;20364;-79
2021/09/07 04:23:01;;;;;;;47.33;30.85;;;16.30;99.90;;;;;;5017936;28;20026;-79
2021/09/07 04:25:27;;;;;;;37.53;27.55;;;16.20;99.90;;;;;;5017563;28;20029;-79
2021/09/07 04:27:53;;;;;;;39.83;27.60;;;16.00;99.90;;;;;;5018758;28;20034;-79
2021/09/07 04:30:20;;;;;;;47.17;28.90;;;16.00;99.90;;;;;;5018119;28;20033;-79
2021/09/07 04:32:46;;;;;;;42.50;28.50;;;16.00;99.90;;;;;;5017855;28;20018;-79
2021/09/07 04:35:12;;;;;;;39.47;28.10;;;15.90;99.90;;;;;;5017989;28;20029;-79
2021/09/07 04:37:38;;;;;;;41.53;27.27;;;15.90;99.90;;;;;;5017900;28;20056;-79
2021/09/07 04:40:04;;;;;;;43.25;27.77;;;15.80;99.90;;;;;;5017007;28;20376;-79
2021/09/07 04:42:30;;;;;;;49.70;30.42;;;15.70;99.90;;;;;;5018451;28;20030;-79
2021/09/07 04:44:55;;;;;;;42.13;27.58;;;15.80;99.90;;;;;;5015851;28;20066;-79
2021/09/07 04:47:21;;;;;;;43.22;28.20;;;15.60;99.90;;;;;;5015122;28;20063;-78
2021/09/07 04:49:47;;;;;;;43.80;27.75;;;15.60;99.90;;;;;;5015084;28;20479;-78
2021/09/07 04:52:12;;;;;;;39.28;27.58;;;15.60;99.90;;;;;;5016471;28;20054;-79
2021/09/07 04:54:38;;;;;;;43.92;28.25;;;15.50;99.90;;;;;;5015320;28;20024;-79
2021/09/07 04:57:05;;;;;;;41.92;27.10;;;15.40;99.90;;;;;;5015655;28;20042;-78
2021/09/07 04:59:31;;;;;;;41.63;25.25;;;15.30;99.90;;;;;;5015683;28;20080;-79
2021/09/07 05:01:56;;;;;;;39.15;26.63;;;15.20;99.90;;;;;;5016527;28;20076;-79
2021/09/07 05:04:22;;;;;;;46.58;27.67;;;15.20;99.90;;;;;;5016740;28;20034;-78
2021/09/07 05:06:47;;;;;;;46.08;28.73;;;15.20;99.90;;;;;;5016836;28;20038;-78
2021/09/07 05:09:13;;;;;;;42.05;27.80;;;15.30;99.90;;;;;;5017646;28;20080;-79
2021/09/07 05:11:39;;;;;;;47.10;28.48;;;15.30;99.90;;;;;;5017902;28;20104;-79
2021/09/07 05:14:06;;;;;;;48.10;28.77;;;15.40;99.90;;;;;;5017168;28;20026;-78
2021/09/07 05:16:32;;;;;;;48.72;28.38;;;15.50;99.90;;;;;;5018156;28;20380;-78
2021/09/07 05:18:57;;;;;;;67.47;30.20;;;15.40;99.90;;;;;;5018825;28;20030;-78
2021/09/07 05:21:23;;;;;;;48.03;27.83;;;15.50;99.90;;;;;;5016789;28;20034;-78
2021/09/07 05:23:49;;;;;;;44.90;27.88;;;15.40;99.90;;;;;;5016002;28;20034;-78
2021/09/07 05:26:14;;;;;;;41.03;26.23;;;15.50;99.90;;;;;;5016671;28;20857;-78
2021/09/07 05:28:40;;;;;;;49.72;29.92;;;15.60;99.90;;;;;;5015173;28;20076;-78
2021/09/07 05:31:06;;;;;;;50.05;27.52;;;15.70;99.90;;;;;;5014955;28;20387;-79
2021/09/07 05:33:31;;;;;;;44.78;26.73;;;15.60;99.90;;;;;;5013581;28;20021;-79
2021/09/07 05:35:57;;;;;;;45.47;25.92;;;15.60;99.90;;;;;;5015010;28;20120;-79
2021/09/07 05:38:22;;;;;;;41.75;26.63;;;15.60;99.90;;;;;;5015002;28;20025;-79
2021/09/07 05:40:50;;;;;;;44.33;26.10;;;15.70;99.90;;;;;;5011617;28;20034;-79
2021/09/07 05:43:15;;;;;;;38.50;25.70;;;15.70;99.90;;;;;;5002367;28;20391;-77
2021/09/07 05:45:41;;;;;;;38.70;25.00;;;15.70;99.90;;;;;;5017720;28;20037;-79
2021/09/07 05:48:07;;;;;;;45.90;25.33;;;15.70;99.90;;;;;;5017528;28;20026;-79
2021/09/07 05:50:32;;;;;;;43.00;25.15;;;15.80;99.90;;;;;;5012028;28;20046;-79
2021/09/07 05:52:58;;;;;;;38.30;25.90;;;15.90;99.90;;;;;;5041803;28;20049;-79
2021/09/07 05:55:23;;;;;;;36.13;24.65;;;15.80;99.90;;;;;;5014559;28;20030;-79
2021/09/07 05:57:53;;;;;;;45.17;26.50;;;15.70;99.90;;;;;;5016833;28;20434;-79
2021/09/07 06:00:18;;;;;;;39.17;24.38;;;15.90;99.90;;;;;;5015929;28;20025;-79
2021/09/07 06:02:45;;;;;;;37.05;24.75;;;16.00;99.90;;;;;;5016816;28;20364;-80
2021/09/07 06:05:11;;;;;;;40.60;24.88;;;16.00;99.90;;;;;;5017212;28;20064;-79
2021/09/07 06:07:38;;;;;;;39.72;26.08;;;16.30;99.90;;;;;;5016015;28;20026;-79
2021/09/07 06:10:04;;;;;;;37.67;24.67;;;16.40;99.90;;;;;;5007140;28;20493;-79
2021/09/07 06:12:30;;;;;;;48.10;26.92;;;16.50;99.90;;;;;;4999655;28;20025;-79
2021/09/07 06:14:56;;;;;;;54.35;27.63;;;16.80;99.90;;;;;;5009743;28;20025;-80
2021/09/07 06:17:21;;;;;;;49.90;29.55;;;16.90;99.90;;;;;;5008983;28;20466;-79
2021/09/07 06:19:47;;;;;;;48.25;29.95;;;17.10;99.90;;;;;;5009552;28;20391;-79
2021/09/07 06:22:13;;;;;;;49.83;30.25;;;17.40;99.90;;;;;;5004449;28;20140;-80
2021/09/07 06:24:38;;;;;;;46.05;29.02;;;17.40;99.90;;;;;;4986112;28;20108;-81
2021/09/07 06:27:04;;;;;;;50.58;30.50;;;17.30;99.90;;;;;;5012235;28;20105;-79
2021/09/07 06:29:30;;;;;;;45.90;29.42;;;17.40;99.90;;;;;;5010291;28;20492;-78
2021/09/07 06:31:56;;;;;;;47.83;30.13;;;17.50;99.90;;;;;;5013632;28;20033;-86
2021/09/07 06:34:24;;;;;;;48.38;28.85;;;17.60;99.90;;;;;;5013980;28;20032;-80
2021/09/07 06:36:54;;;;;;;45.47;29.67;;;17.60;99.90;;;;;;5011605;28;20034;-79
2021/09/07 06:39:20;;;;;;;45.55;29.77;;;17.80;99.90;;;;;;5011405;28;20038;-79
2021/09/07 06:41:46;;;;;;;43.97;29.42;;;17.90;99.90;;;;;;5008627;28;20061;-78
2021/09/07 06:44:12;;;;;;;47.70;29.88;;;18.20;99.90;;;;;;5001070;28;20029;-78
2021/09/07 06:46:37;;;;;;;42.05;29.60;;;18.50;99.90;;;;;;5019958;28;20067;-79
2021/09/07 06:49:03;;;;;;;40.60;29.63;;;18.40;99.90;;;;;;5016152;28;20038;-78
2021/09/07 06:51:29;;;;;;;49.17;30.13;;;18.30;99.90;;;;;;5013300;28;20868;-78
2021/09/07 06:53:54;;;;;;;46.67;29.80;;;18.20;99.90;;;;;;5010870;28;20030;-78
2021/09/07 06:56:20;;;;;;;45.13;29.88;;;18.20;99.90;;;;;;5000869;28;20138;-78
2021/09/07 06:58:46;;;;;;;42.63;30.38;;;18.10;99.90;;;;;;5010608;28;20026;-77
2021/09/07 07:01:11;;;;;;;45.33;31.13;;;18.30;99.90;;;;;;5010836;28;20049;-78
2021/09/07 07:03:37;;;;;;;46.75;30.73;;;18.50;99.90;;;;;;5000591;28;20071;-78
2021/09/07 07:06:03;;;;;;;42.78;29.05;;;18.70;99.90;;;;;;5003803;28;20030;-79
2021/09/07 07:08:29;;;;;;;45.38;29.67;;;18.80;99.90;;;;;;5011888;28;20026;-79
2021/09/07 07:10:54;;;;;;;48.85;30.13;;;18.90;99.90;;;;;;5009728;28;20212;-78
2021/09/07 07:13:20;;;;;;;43.72;29.52;;;19.00;99.90;;;;;;4997769;28;20028;-78
2021/09/07 07:15:45;;;;;;;44.55;30.15;;;19.10;99.90;;;;;;5001069;28;20038;-80
2021/09/07 07:18:11;;;;;;;43.28;30.10;;;19.30;99.90;;;;;;5012101;28;20144;-79
2021/09/07 07:20:37;;;;;;;47.78;29.60;;;19.40;99.90;;;;;;5011275;28;20022;-79
2021/09/07 07:23:02;;;;;;;45.60;30.13;;;19.60;99.90;;;;;;5015185;28;20060;-78
2021/09/07 07:25:28;;;;;;;44.47;29.05;;;19.70;99.90;;;;;;5008167;28;20503;-78
2021/09/07 07:27:54;;;;;;;40.00;28.77;;;19.80;99.90;;;;;;5008422;28;20030;-79
2021/09/07 07:30:20;;;;;;;39.78;29.83;;;19.70;99.90;;;;;;5011656;28;20191;-80
2021/09/07 07:32:45;;;;;;;44.15;29.83;;;19.80;99.90;;;;;;4998907;28;20068;-79
2021/09/07 07:35:11;;;;;;;39.78;26.95;;;20.00;99.90;;;;;;5006726;28;20367;-78
2021/09/07 07:37:37;;;;;;;39.65;27.58;;;20.70;99.90;;;;;;5005068;28;20382;-78
2021/09/07 07:40:03;;;;;;;39.03;26.75;;;21.20;99.90;;;;;;5014757;28;20081;-78
2021/09/07 07:42:29;;;;;;;40.30;27.40;;;22.10;99.90;;;;;;5000421;28;20105;-78
2021/09/07 07:44:55;;;;;;;35.35;25.92;;;23.30;99.90;;;;;;5009807;28;20050;-78
2021/09/07 07:47:20;;;;;;;41.30;26.45;;;23.90;99.90;;;;;;5009861;28;20076;-79
2021/09/07 07:49:46;;;;;;;37.28;26.67;;;24.70;99.90;;;;;;5014823;28;20029;-79
2021/09/07 07:52:12;;;;;;;31.73;24.95;;;25.00;99.90;;;;;;5013770;28;20073;-77
2021/09/07 07:54:37;;;;;;;34.83;26.05;;;26.10;99.90;;;;;;5003646;28;20030;-77
2021/09/07 07:57:03;;;;;;;33.72;26.48;;;26.50;98.60;;;;;;5003068;28;20027;-76
2021/09/07 07:59:29;;;;;;;33.33;25.75;;;27.50;96.80;;;;;;4996503;28;20035;-77
2021/09/07 08:01:54;;;;;;;30.15;24.98;;;28.10;95.50;;;;;;5004466;28;20022;-77
2021/09/07 08:04:20;;;;;;;30.88;25.90;;;28.60;94.00;;;;;;5003139;28;20029;-77
2021/09/07 08:06:46;;;;;;;34.40;25.77;;;29.00;93.20;;;;;;5008460;28;20033;-77
2021/09/07 08:09:11;;;;;;;35.05;25.77;;;29.10;92.40;;;;;;5007797;28;20435;-77
2021/09/07 08:11:38;;;;;;;31.40;25.30;;;30.10;91.10;;;;;;5007534;28;20088;-80
2021/09/07 08:14:07;;;;;;;32.95;24.88;;;29.90;89.90;;;;;;5001687;28;20026;-81
2021/09/07 08:16:33;;;;;;;32.40;25.25;;;29.70;88.10;;;;;;5010557;28;20482;-82
2021/09/07 08:18:59;;;;;;;31.38;24.80;;;29.70;87.60;;;;;;5010278;28;20064;-78
2021/09/07 08:21:24;;;;;;;40.85;25.60;;;29.10;90.20;;;;;;5014381;28;20056;-79
2021/09/07 08:23:51;;;;;;;34.20;26.10;;;29.60;90.00;;;;;;5003696;28;20559;-79
2021/09/07 08:26:17;;;;;;;37.97;24.63;;;30.10;88.30;;;;;;5012128;28;20049;-81
2021/09/07 08:28:42;;;;;;;35.80;26.15;;;30.40;87.10;;;;;;5009890;28;20025;-80
2021/09/07 08:31:09;;;;;;;33.33;25.40;;;30.40;86.40;;;;;;5013273;28;20018;-81
2021/09/07 08:33:35;;;;;;;38.08;25.10;;;31.00;84.10;;;;;;5014333;28;21065;-77
2021/09/07 08:36:01;;;;;;;36.53;26.58;;;30.40;85.50;;;;;;4991156;28;20244;-76
2021/09/07 08:38:27;;;;;;;33.67;27.33;;;30.30;83.60;;;;;;4988289;28;20379;-77
2021/09/07 08:40:53;;;;;;;37.97;27.38;;;30.30;83.30;;;;;;5004898;28;20383;-77
2021/09/07 08:43:22;;;;;;;37.40;27.30;;;30.60;82.90;;;;;;5002170;28;20032;-77
2021/09/07 08:45:52;;;;;;;38.50;28.10;;;30.60;83.20;;;;;;4997418;28;20087;-76
2021/09/07 08:48:21;;;;;;;36.25;27.45;;;31.20;80.60;;;;;;5002650;28;20045;-77
2021/09/07 08:50:46;;;;;;;36.20;27.80;;;31.20;81.00;;;;;;5009976;28;20029;-77
2021/09/07 08:53:12;;;;;;;36.08;28.00;;;31.10;81.00;;;;;;5004701;28;20034;-77
2021/09/07 08:55:38;;;;;;;36.15;27.17;;;30.80;81.50;;;;;;4998863;28;20503;-77
2021/09/07 08:58:03;;;;;;;38.35;28.17;;;31.60;80.10;;;;;;5001915;28;20228;-77
2021/09/07 09:00:32;;;;;;;34.22;27.38;;;31.60;78.90;;;;;;5008827;28;20029;-77
2021/09/07 09:03:11;;;;;;;36.08;27.38;;;31.60;77.50;;;;;;4997824;28;20403;-77
2021/09/07 09:05:40;;;;;;;36.35;26.35;;;32.20;76.00;;;;;;5004199;28;20100;-77
2021/09/07 09:08:14;;;;;;;36.40;26.95;;;32.00;76.50;;;;;;5003554;28;20073;-77
2021/09/07 09:10:41;;;;;;;38.28;24.95;;;32.10;73.60;;;;;;5012525;28;20033;-77
2021/09/07 09:13:12;;;;;;;34.88;26.67;;;31.70;73.70;;;;;;5006417;28;20109;-77
2021/09/07 09:15:39;;;;;;;29.53;25.63;;;31.60;73.80;;;;;;5002101;28;20808;-77
2021/09/07 09:18:10;;;;;;;30.00;25.08;;;31.00;75.10;;;;;;5000585;28;20032;-77
2021/09/07 09:20:38;;;;;;;33.57;25.57;;;30.70;77.10;;;;;;5010097;28;20195;-78
2021/09/07 09:23:05;;;;;;;34.00;26.02;;;31.10;77.50;;;;;;5006980;28;20265;-78
2021/09/07 09:25:41;;;;;;;35.03;25.42;;;31.80;75.20;;;;;;4999840;28;20026;-77
2021/09/07 09:28:11;;;;;;;28.48;23.75;;;32.00;74.40;;;;;;5004041;28;20387;-77
2021/09/07 09:30:40;;;;;;;29.65;23.50;;;31.80;74.20;;;;;;4999051;28;20030;-79
2021/09/07 09:33:06;;;;;;;32.35;23.08;;;32.20;73.50;;;;;;5010379;28;20360;-77
2021/09/07 09:35:50;;;;;;;27.00;21.70;;;32.40;72.70;;;;;;5007760;28;20025;-77
2021/09/07 09:38:19;;;;;;;30.88;22.50;;;31.90;71.80;;;;;;5014057;28;20022;-78
2021/09/07 09:40:51;;;;;;;28.10;21.60;;;32.00;71.60;;;;;;5007986;28;20544;-78
2021/09/07 09:43:43;;;;;;;26.67;21.33;;;31.80;70.50;;;;;;5008224;28;20034;-77
2021/09/07 09:46:18;;;;;;;23.95;18.75;;;31.80;71.70;;;;;;5006901;28;20120;-78
2021/09/07 09:48:44;;;;;;;26.52;20.05;;;31.50;68.90;;;;;;5011453;28;20382;-78
2021/09/07 09:51:17;;;;;;;23.10;18.52;;;31.20;72.80;;;;;;5010035;28;20026;-78
2021/09/07 09:53:46;;;;;;;23.45;19.50;;;31.40;69.10;;;;;;5010486;28;20042;-78
2021/09/07 09:56:13;;;;;;;25.50;18.35;;;30.50;72.30;;;;;;5006743;28;20495;-77
2021/09/07 09:58:39;;;;;;;27.35;19.23;;;30.90;69.30;;;;;;5009463;28;20029;-79
2021/09/07 10:01:05;;;;;;;24.13;19.38;;;31.20;70.40;;;;;;5008899;28;20034;-79
2021/09/07 10:03:32;;;;;;;24.30;18.45;;;32.30;72.00;;;;;;5016996;28;20483;-79
2021/09/07 10:05:58;;;;;;;21.20;16.98;;;33.00;69.20;;;;;;4995387;28;20032;-80
2021/09/07 10:08:24;;;;;;;25.80;17.05;;;32.90;66.60;;;;;;4993978;28;20079;-79
2021/09/07 10:10:56;;;;;;;20.65;15.75;;;32.60;64.40;;;;;;5003939;28;20050;-79
2021/09/07 10:13:24;;;;;;;17.95;15.38;;;32.40;65.30;;;;;;5004581;28;20022;-79
2021/09/07 10:18:55;;;;;;;23.42;14.82;;;30.90;67.00;;;;;;5009178;28;20034;-79
2021/09/07 10:26:42;;;;;;;26.20;14.73;;;32.30;63.20;;;;;;5004548;28;20450;-82
2021/09/07 10:29:17;;;;;;;20.65;14.23;;;32.90;60.90;;;;;;5006686;28;20014;-82
2021/09/07 10:31:49;;;;;;;18.15;12.93;;;32.60;60.90;;;;;;5010546;28;20045;-83
2021/09/07 10:34:19;;;;;;;23.52;12.95;;;32.30;61.90;;;;;;5020007;28;20028;-79
2021/09/07 10:36:58;;;;;;;23.07;15.90;;;32.90;63.00;;;;;;5012958;28;20034;-79
2021/09/07 10:39:31;;;;;;;24.42;15.25;;;34.20;62.90;;;;;;5015156;28;20087;-81
2021/09/07 10:42:05;;;;;;;35.38;14.57;;;34.30;61.80;;;;;;5017424;28;20029;-81
2021/09/07 10:44:58;;;;;;;19.60;12.95;;;34.00;62.00;;;;;;5005024;28;20041;-79
2021/09/07 10:47:42;;;;;;;18.65;12.18;;;33.60;60.70;;;;;;5017084;28;20022;-82
2021/09/07 10:50:08;;;;;;;24.33;12.05;;;34.10;60.80;;;;;;5021435;28;20030;-79
2021/09/07 10:52:35;;;;;;;21.23;11.57;;;34.10;60.50;;;;;;5017654;28;20072;-79
2021/09/07 10:55:06;;;;;;;15.73;11.30;;;34.70;60.40;;;;;;5016473;28;20041;-81
2021/09/07 10:57:32;;;;;;;18.40;10.15;;;35.30;55.40;;;;;;5017827;28;20052;-80
2021/09/07 11:00:00;;;;;;;19.35;10.88;;;35.40;54.30;;;;;;5016841;28;20034;-81
2021/09/07 11:02:59;;;;;;;13.50;10.15;;;34.40;53.70;;;;;;5016582;28;20395;-82
2021/09/07 11:05:25;;;;;;;15.30;9.40;;;34.10;55.70;;;;;;5021831;28;20052;-81
2021/09/07 11:08:05;;;;;;;11.95;8.85;;;34.60;54.80;;;;;;5011667;28;20068;-80
2021/09/07 11:10:32;;;;;;;10.90;8.82;;;33.20;55.20;;;;;;5015378;28;20053;-80
2021/09/07 11:13:04;;;;;;;12.80;8.88;;;32.30;57.30;;;;;;5005913;28;20053;-78
2021/09/07 11:15:37;;;;;;;15.82;9.23;;;32.40;58.10;;;;;;4989561;28;20026;-78
2021/09/07 11:18:08;;;;;;;11.73;8.48;;;33.00;57.80;;;;;;5012803;28;20026;-78
2021/09/07 11:20:34;;;;;;;12.20;8.85;;;32.80;56.50;;;;;;5011258;28;20030;-79
2021/09/07 11:23:16;;;;;;;13.52;7.88;;;33.00;57.20;;;;;;5012710;28;20020;-79
2021/09/07 11:25:50;;;;;;;12.90;8.15;;;33.10;56.80;;;;;;5011161;28;20109;-79
2021/09/07 11:28:17;;;;;;;10.15;7.85;;;33.20;56.10;;;;;;5021376;28;20030;-79
2021/09/07 11:30:51;;;;;;;11.38;7.60;;;33.50;56.80;;;;;;5006232;28;20036;-78
2021/09/07 11:33:27;;;;;;;7.82;7.03;;;34.00;54.90;;;;;;5008058;28;20033;-79
2021/09/07 11:36:14;;;;;;;9.77;7.82;;;33.70;55.40;;;;;;5013537;28;20419;-79
2021/09/07 11:38:46;;;;;;;14.30;7.55;;;33.20;55.70;;;;;;4997199;28;20076;-78
2021/09/07 11:41:17;;;;;;;9.63;7.78;;;33.00;55.90;;;;;;5013828;28;20028;-80
2021/09/07 11:43:55;;;;;;;8.70;7.57;;;32.80;56.40;;;;;;5011726;28;20152;-79
2021/09/07 11:46:47;;;;;;;13.50;8.73;;;32.70;56.30;;;;;;5025945;28;20068;-79
2021/09/07 11:49:15;;;;;;;9.88;8.50;;;33.00;56.20;;;;;;5002790;28;20030;-79
2021/09/07 11:51:43;;;;;;;9.63;8.38;;;33.40;55.90;;;;;;5011428;28;20038;-79
2021/09/07 11:54:10;;;;;;;12.35;8.32;;;34.30;55.00;;;;;;5010638;28;20033;-79
2021/09/07 11:56:38;;;;;;;15.75;8.88;;;34.70;53.50;;;;;;5011921;28;20038;-81
2021/09/07 11:59:15;;;;;;;11.23;7.55;;;34.40;53.20;;;;;;5017308;28;20057;-81
2021/09/07 12:01:44;;;;;;;10.15;7.22;;;34.30;53.80;;;;;;5012039;28;20084;-79
2021/09/07 12:04:14;;;;;;;15.73;7.88;;;34.20;54.60;;;;;;5030081;28;20518;-80
2021/09/07 12:06:44;;;;;;;14.02;7.78;;;34.00;55.40;;;;;;5006059;28;20026;-81
2021/09/07 12:09:31;;;;;;;14.23;8.02;;;34.40;55.70;;;;;;5019000;28;20044;-79
2021/09/07 12:12:07;;;;;;;12.55;7.88;;;34.90;54.80;;;;;;5008783;28;20108;-83
2021/09/07 12:14:38;;;;;;;11.30;7.57;;;35.30;52.30;;;;;;5012314;28;20494;-83
2021/09/07 12:17:06;;;;;;;12.80;8.07;;;34.80;54.40;;;;;;5012093;28;20018;-80
2021/09/07 12:19:38;;;;;;;9.55;7.68;;;34.90;53.90;;;;;;5013539;28;20097;-79
2021/09/07 12:22:06;;;;;;;10.45;7.57;;;34.90;53.50;;;;;;4995269;28;20121;-81
2021/09/07 12:24:33;;;;;;;8.90;6.85;;;34.80;53.80;;;;;;5013195;28;20034;-80
2021/09/07 12:26:58;;;;;;;8.20;7.13;;;34.90;54.40;;;;;;5016884;28;20688;-79
2021/09/07 12:29:24;;;;;;;11.88;7.68;;;35.40;53.80;;;;;;5014428;28;20033;-79
2021/09/07 12:32:01;;;;;;;9.23;7.32;;;35.60;53.10;;;;;;5014082;28;20044;-79
2021/09/07 12:34:27;;;;;;;11.70;7.95;;;35.90;53.20;;;;;;5014949;28;20435;-79
2021/09/07 12:36:52;;;;;;;8.82;7.68;;;36.30;52.80;;;;;;5013807;28;20041;-79